createdAt,value
2018-05-16T00:01:14.077Z,60.23
2018-05-16T00:03:41.797Z,57.77
2018-05-16T00:06:09.496Z,54.27
2018-05-16T00:08:37.205Z,63.43
2018-05-16T00:11:04.999Z,58.33
2018-05-16T00:13:32.705Z,63.50
2018-05-16T00:16:01.169Z,63.33
2018-05-16T00:18:28.876Z,40.13
2018-05-16T00:20:56.603Z,53.73
2018-05-16T00:23:25.086Z,55.83
2018-05-16T00:25:53.577Z,44.87
2018-05-16T00:28:22.063Z,52.17
2018-05-16T00:30:50.533Z,49.67
2018-05-16T00:33:19.009Z,49.70
2018-05-16T00:35:47.493Z,55.63
2018-05-16T00:38:15.977Z,50.47
2018-05-16T00:40:44.566Z,52.43
2018-05-16T00:43:13.043Z,58.07
2018-05-16T00:45:41.521Z,64.70
2018-05-16T00:48:09.990Z,45.90
2018-05-16T00:50:37.689Z,50.67
2018-05-16T00:53:05.400Z,38.17
2018-05-16T00:55:33.093Z,36.23
2018-05-16T00:58:01.566Z,34.50
2018-05-16T01:00:30.052Z,42.77
2018-05-16T01:02:58.522Z,33.40
2018-05-16T01:05:26.233Z,42.83
2018-05-16T01:07:53.929Z,36.70
2018-05-16T01:10:21.626Z,48.20
2018-05-16T01:12:50.130Z,48.10
2018-05-16T01:15:17.837Z,51.53
2018-05-16T01:17:45.529Z,39.23
2018-05-16T01:20:14.017Z,51.17
2018-05-16T01:22:42.482Z,45.83
2018-05-16T01:25:10.178Z,60.30
2018-05-16T01:27:37.879Z,46.83
2018-05-16T01:30:05.618Z,47.67
2018-05-16T01:32:33.333Z,57.20
2018-05-16T01:35:01.041Z,55.70
2018-05-16T01:37:28.877Z,49.33
2018-05-16T01:39:57.373Z,47.63
2018-05-16T01:42:25.140Z,34.13
2018-05-16T01:44:52.868Z,45.80
2018-05-16T01:47:20.568Z,41.47
2018-05-16T01:49:48.321Z,32.97
2018-05-16T01:52:16.797Z,45.70
2018-05-16T01:54:45.267Z,50.00
2018-05-16T01:57:12.982Z,49.80
2018-05-16T01:59:40.700Z,42.17
2018-05-16T02:02:09.291Z,26.23
2018-05-16T02:04:37.753Z,39.07
2018-05-16T02:07:05.513Z,28.50
2018-05-16T02:09:33.213Z,35.60
2018-05-16T02:12:00.965Z,39.43
2018-05-16T02:14:29.432Z,43.33
2018-05-16T02:16:57.168Z,41.67
2018-05-16T02:19:24.872Z,28.57
2018-05-16T02:21:53.356Z,33.80
2018-05-16T02:24:21.829Z,34.93
2018-05-16T02:26:50.309Z,34.90
2018-05-16T02:29:18.798Z,39.53
2018-05-16T02:31:47.277Z,44.63
2018-05-16T02:34:15.754Z,46.30
2018-05-16T02:36:44.222Z,34.23
2018-05-16T02:39:11.918Z,39.57
2018-05-16T02:41:39.694Z,45.33
2018-05-16T02:44:07.411Z,52.93
2018-05-16T02:46:35.121Z,46.77
2018-05-16T02:49:02.845Z,45.87
2018-05-16T02:51:31.365Z,48.03
2018-05-16T02:53:59.064Z,64.30
2018-05-16T02:56:26.781Z,48.77
2018-05-16T02:58:54.496Z,45.93
2018-05-16T03:01:22.205Z,52.47
2018-05-16T03:03:49.933Z,53.30
2018-05-16T03:06:17.949Z,60.93
2018-05-16T03:08:45.649Z,74.10
2018-05-16T03:11:13.349Z,76.77
2018-05-16T03:13:41.812Z,61.07
2018-05-16T03:16:09.543Z,58.90
2018-05-16T03:18:37.247Z,82.13
2018-05-16T03:21:04.990Z,81.43
2018-05-16T03:23:32.714Z,70.10
2018-05-16T03:26:00.430Z,28.50
2018-05-16T03:28:28.125Z,36.00
2018-05-16T03:30:55.866Z,36.63
2018-05-16T03:33:24.337Z,23.43
2018-05-16T03:35:52.046Z,22.27
2018-05-16T03:38:19.912Z,34.73
2018-05-16T03:40:47.633Z,40.60
2018-05-16T03:43:15.329Z,36.00
2018-05-16T03:45:43.037Z,27.87
2018-05-16T03:48:10.725Z,31.17
2018-05-16T03:50:38.509Z,31.40
2018-05-16T03:53:06.258Z,31.47
2018-05-16T03:55:34.724Z,31.93
2018-05-16T03:58:23.062Z,24.83
2018-05-16T04:01:03.662Z,27.70
2018-05-16T04:03:43.985Z,36.27
2018-05-16T04:06:11.713Z,32.87
2018-05-16T04:08:39.554Z,28.53
2018-05-16T04:11:07.378Z,25.23
2018-05-16T04:13:35.248Z,25.57
2018-05-16T04:16:02.825Z,26.07
2018-05-16T04:18:30.532Z,22.77
2018-05-16T04:20:58.261Z,29.73
2018-05-16T04:23:26.741Z,30.13
2018-05-16T04:25:55.218Z,30.60
2018-05-16T04:28:22.945Z,27.60
2018-05-16T04:30:50.788Z,27.00
2018-05-16T04:33:18.886Z,29.40
2018-05-16T04:35:46.966Z,36.13
2018-05-16T04:38:14.684Z,38.43
2018-05-16T04:40:42.392Z,36.97
2018-05-16T04:43:10.129Z,26.20
2018-05-16T04:45:37.958Z,33.40
2018-05-16T04:48:06.884Z,28.83
2018-05-16T04:50:34.632Z,32.03
2018-05-16T04:53:02.346Z,37.20
2018-05-16T04:55:30.140Z,43.73
2018-05-16T04:57:57.893Z,31.20
2018-05-16T05:00:25.706Z,27.60
2018-05-16T05:02:53.440Z,29.57
2018-05-16T05:05:21.922Z,36.93
2018-05-16T05:07:49.671Z,27.23
2018-05-16T05:10:18.221Z,27.77
2018-05-16T05:12:46.213Z,27.93
2018-05-16T05:15:13.969Z,24.10
2018-05-16T05:17:42.162Z,23.33
2018-05-16T05:20:10.724Z,23.77
2018-05-16T05:22:38.486Z,23.33
2018-05-16T05:25:06.246Z,25.60
2018-05-16T05:27:35.041Z,23.20
2018-05-16T05:30:02.772Z,20.47
2018-05-16T05:32:30.661Z,27.80
2018-05-16T05:34:58.446Z,25.93
2018-05-16T05:37:26.217Z,23.20
2018-05-16T05:39:54.929Z,25.57
2018-05-16T05:42:22.665Z,28.13
2018-05-16T05:44:50.411Z,25.17
2018-05-16T05:47:18.118Z,21.80
2018-05-16T05:49:46.600Z,27.90
2018-05-16T05:52:15.130Z,32.40
2018-05-16T05:54:42.897Z,28.73
2018-05-16T05:57:10.659Z,25.23
2018-05-16T05:59:38.405Z,24.30
2018-05-16T06:02:06.142Z,22.13
2018-05-16T06:04:33.856Z,26.43
2018-05-16T06:07:01.636Z,27.93
2018-05-16T06:09:30.132Z,22.50
2018-05-16T06:11:58.693Z,23.53
2018-05-16T06:14:26.436Z,23.57
2018-05-16T06:16:54.150Z,25.10
2018-05-16T06:19:22.689Z,28.93
2018-05-16T06:21:50.399Z,23.80
2018-05-16T06:24:18.944Z,26.67
2018-05-16T06:26:46.695Z,23.77
2018-05-16T06:29:14.532Z,23.97
2018-05-16T06:31:42.289Z,24.07
2018-05-16T06:34:10.004Z,24.43
2018-05-16T06:36:37.749Z,25.43
2018-05-16T06:39:06.294Z,22.93
2018-05-16T06:41:34.109Z,24.43
2018-05-16T06:44:01.850Z,26.67
2018-05-16T06:46:29.566Z,23.53
2018-05-16T06:48:57.320Z,24.70
2018-05-16T06:51:25.075Z,26.50
2018-05-16T06:53:52.869Z,25.87
2018-05-16T06:56:21.386Z,24.30
2018-05-16T06:58:49.077Z,27.27
2018-05-16T07:01:16.777Z,29.63
2018-05-16T07:03:45.273Z,25.80
2018-05-16T07:06:13.037Z,24.20
2018-05-16T07:08:40.777Z,29.43
2018-05-16T07:11:09.298Z,25.50
2018-05-16T07:13:37.029Z,25.50
2018-05-16T07:16:04.791Z,26.47
2018-05-16T07:18:33.283Z,24.10
2018-05-16T07:21:01.850Z,25.57
2018-05-16T07:23:30.408Z,25.37
2018-05-16T07:25:58.162Z,27.73
2018-05-16T07:28:25.926Z,27.77
2018-05-16T07:30:53.687Z,26.37
2018-05-16T07:33:21.381Z,23.60
2018-05-16T07:35:49.153Z,27.37
2018-05-16T07:38:16.920Z,22.40
2018-05-16T07:40:45.540Z,28.70
2018-05-16T07:43:13.351Z,25.07
2018-05-16T07:45:41.125Z,24.27
2018-05-16T07:48:08.844Z,28.57
2018-05-16T07:50:36.684Z,29.93
2018-05-16T07:53:04.452Z,26.13
2018-05-16T07:55:32.173Z,26.57
2018-05-16T07:57:59.901Z,27.63
2018-05-16T08:00:28.753Z,25.47
2018-05-16T08:02:57.321Z,30.33
2018-05-16T08:05:25.065Z,31.70
2018-05-16T08:07:52.878Z,27.47
2018-05-16T08:10:21.352Z,30.83
2018-05-16T08:12:49.176Z,32.33
2018-05-16T08:15:16.960Z,27.37
2018-05-16T08:17:45.458Z,28.80
2018-05-16T08:20:14.030Z,23.93
2018-05-16T08:22:42.150Z,21.87
2018-05-16T08:25:09.847Z,26.40
2018-05-16T08:27:37.552Z,27.07
2018-05-16T08:30:06.091Z,25.43
2018-05-16T08:32:33.842Z,24.73
2018-05-16T08:35:01.635Z,24.67
2018-05-16T08:37:29.377Z,24.10
2018-05-16T08:39:57.238Z,29.30
2018-05-16T08:42:24.913Z,23.73
2018-05-16T08:44:52.625Z,22.73
2018-05-16T08:47:20.402Z,26.63
2018-05-16T08:49:48.177Z,24.80
2018-05-16T08:52:15.962Z,23.87
2018-05-16T08:54:43.665Z,20.07
2018-05-16T08:57:11.501Z,22.90
2018-05-16T08:59:39.234Z,20.03
2018-05-16T09:02:07.043Z,18.90
2018-05-16T09:04:34.773Z,27.77
2018-05-16T09:07:02.494Z,30.07
2018-05-16T09:09:31.231Z,24.37
2018-05-16T09:11:59.159Z,25.40
2018-05-16T09:14:26.897Z,27.70
2018-05-16T09:16:54.706Z,22.70
2018-05-16T09:19:23.354Z,26.57
2018-05-16T09:21:51.857Z,26.20
2018-05-16T09:24:19.643Z,25.60
2018-05-16T09:26:47.633Z,27.70
2018-05-16T09:29:15.393Z,28.07
2018-05-16T09:31:43.160Z,31.40
2018-05-16T09:34:10.897Z,23.70
2018-05-16T09:36:38.625Z,22.30
2018-05-16T09:39:07.117Z,22.50
2018-05-16T09:41:35.625Z,21.97
2018-05-16T09:44:03.429Z,29.17
2018-05-16T09:46:31.136Z,24.53
2018-05-16T09:48:58.909Z,26.10
2018-05-16T09:51:26.796Z,25.17
2018-05-16T09:53:54.568Z,24.67
2018-05-16T09:56:22.349Z,22.33
2018-05-16T09:58:50.443Z,24.03
2018-05-16T10:01:18.201Z,24.47
2018-05-16T10:03:45.938Z,23.43
2018-05-16T10:06:13.669Z,20.93
2018-05-16T10:08:41.400Z,22.83
2018-05-16T10:11:09.177Z,20.93
2018-05-16T10:13:37.652Z,21.73
2018-05-16T10:16:06.194Z,19.63
2018-05-16T10:18:33.955Z,22.20
2018-05-16T10:21:01.658Z,19.50
2018-05-16T10:23:29.362Z,17.93
2018-05-16T10:25:57.057Z,16.20
2018-05-16T10:28:24.821Z,13.53
2018-05-16T10:30:54.533Z,16.23
2018-05-16T10:33:22.269Z,17.30
2018-05-16T10:35:49.995Z,15.50
2018-05-16T10:38:18.464Z,16.20
2018-05-16T10:40:46.276Z,19.60
2018-05-16T10:43:13.961Z,17.90
2018-05-16T10:45:41.736Z,15.43
2018-05-16T10:48:09.536Z,16.30
2018-05-16T10:50:38.046Z,15.87
2018-05-16T10:53:05.764Z,16.67
2018-05-16T10:55:33.530Z,17.33
2018-05-16T10:58:01.292Z,20.57
2018-05-16T11:00:29.173Z,14.37
2018-05-16T11:02:57.764Z,17.67
2018-05-16T11:05:25.494Z,16.60
2018-05-16T11:07:53.288Z,14.07
2018-05-16T11:10:21.798Z,17.77
2018-05-16T11:12:49.536Z,17.80
2018-05-16T11:15:18.104Z,14.60
2018-05-16T11:17:45.859Z,14.60
2018-05-16T11:20:13.674Z,13.60
2018-05-16T11:22:41.390Z,13.77
2018-05-16T11:25:09.102Z,16.80
2018-05-16T11:27:36.870Z,21.67
2018-05-16T11:30:04.632Z,16.13
2018-05-16T11:32:32.366Z,18.03
2018-05-16T11:35:00.094Z,14.10
2018-05-16T11:37:27.822Z,15.30
2018-05-16T11:39:55.589Z,15.60
2018-05-16T11:42:23.368Z,15.00
2018-05-16T11:44:51.142Z,14.43
2018-05-16T11:47:18.877Z,14.77
2018-05-16T11:49:46.669Z,14.07
2018-05-16T11:52:14.408Z,14.37
2018-05-16T11:54:42.125Z,14.53
2018-05-16T11:57:09.833Z,15.77
2018-05-16T11:59:37.553Z,13.20
2018-05-16T12:02:05.269Z,14.23
2018-05-16T12:04:32.997Z,13.73
2018-05-16T12:07:01.469Z,15.57
2018-05-16T12:09:30.203Z,16.20
2018-05-16T12:11:57.944Z,14.97
2018-05-16T12:14:25.648Z,15.03
2018-05-16T12:16:53.373Z,14.10
2018-05-16T12:19:21.099Z,15.17
2018-05-16T12:21:48.830Z,15.10
2018-05-16T12:24:16.766Z,12.67
2018-05-16T12:26:44.466Z,14.97
2018-05-16T12:29:12.251Z,12.60
2018-05-16T12:31:39.990Z,12.63
2018-05-16T12:34:07.682Z,13.50
2018-05-16T12:36:35.516Z,13.37
2018-05-16T12:39:04.192Z,12.70
2018-05-16T12:41:31.956Z,11.27
2018-05-16T12:43:59.681Z,13.20
2018-05-16T12:46:27.437Z,13.37
2018-05-16T12:48:55.244Z,13.27
2018-05-16T12:51:22.979Z,11.77
2018-05-16T12:53:51.499Z,16.93
2018-05-16T12:56:19.316Z,11.63
2018-05-16T12:58:47.022Z,14.30
2018-05-16T13:01:14.756Z,13.93
2018-05-16T13:03:43.249Z,16.67
2018-05-16T13:06:10.980Z,13.20
2018-05-16T13:08:38.689Z,11.73
2018-05-16T13:11:06.447Z,11.83
2018-05-16T13:13:34.184Z,11.10
2018-05-16T13:16:02.673Z,11.30
2018-05-16T13:18:31.177Z,13.00
2018-05-16T13:20:58.969Z,14.50
2018-05-16T13:23:26.665Z,12.63
2018-05-16T13:25:54.413Z,12.37
2018-05-16T13:28:22.135Z,12.97
2018-05-16T13:30:49.891Z,13.97
2018-05-16T13:33:17.612Z,12.40
2018-05-16T13:35:45.364Z,9.77
2018-05-16T13:38:13.080Z,16.10
2018-05-16T13:40:40.931Z,12.43
2018-05-16T13:43:09.753Z,14.67
2018-05-16T13:45:37.466Z,11.87
2018-05-16T13:48:05.227Z,11.63
2018-05-16T13:50:33.059Z,13.87
2018-05-16T13:53:00.789Z,12.43
2018-05-16T13:55:28.523Z,14.23
2018-05-16T13:57:56.302Z,13.70
2018-05-16T14:00:24.081Z,12.97
2018-05-16T14:02:51.829Z,14.40
2018-05-16T14:05:20.293Z,11.17
2018-05-16T14:07:48.057Z,13.93
2018-05-16T14:10:15.893Z,21.43
2018-05-16T14:12:43.633Z,14.07
2018-05-16T14:15:11.431Z,16.33
2018-05-16T14:17:39.162Z,16.08
2018-05-16T14:20:06.991Z,10.50
2018-05-16T14:22:35.531Z,12.57
2018-05-16T14:25:03.381Z,11.75
2018-05-16T14:27:31.098Z,12.63
2018-05-16T14:29:58.880Z,13.93
2018-05-16T14:32:27.373Z,8.45
2018-05-16T14:34:55.125Z,14.15
2018-05-16T14:37:23.605Z,8.10
2018-05-16T14:39:52.140Z,12.93
2018-05-16T14:42:19.912Z,11.35
2018-05-16T14:44:47.705Z,6.20
2018-05-16T14:47:15.566Z,6.32
2018-05-16T14:49:43.366Z,3.60
2018-05-16T14:52:11.115Z,7.30
2018-05-16T14:54:39.663Z,3.17
2018-05-16T14:57:07.393Z,7.17
2018-05-16T14:59:35.208Z,8.67
2018-05-16T15:02:02.921Z,3.57
2018-05-16T15:04:30.871Z,7.10
2018-05-16T15:06:58.598Z,6.83
2018-05-16T15:09:26.301Z,7.77
2018-05-16T15:11:54.025Z,3.60
2018-05-16T15:14:21.788Z,4.40
2018-05-16T15:16:49.488Z,11.23
2018-05-16T15:19:17.505Z,7.93
2018-05-16T15:21:45.327Z,9.43
2018-05-16T15:24:13.053Z,4.23
2018-05-16T15:26:40.775Z,3.80
2018-05-16T15:29:08.558Z,4.43
2018-05-16T15:31:36.268Z,3.73
2018-05-16T15:34:04.799Z,9.30
2018-05-16T15:36:32.593Z,5.40
2018-05-16T15:39:00.358Z,4.90
2018-05-16T15:41:28.099Z,4.63
2018-05-16T15:43:55.865Z,4.60
2018-05-16T15:46:23.788Z,5.60
2018-05-16T15:48:51.729Z,7.93
2018-05-16T15:51:20.004Z,5.87
2018-05-16T15:53:47.953Z,5.93
2018-05-16T15:56:15.736Z,6.97
2018-05-16T15:58:43.556Z,7.13
2018-05-16T16:01:11.413Z,7.87
2018-05-16T16:03:39.148Z,8.47
2018-05-16T16:06:07.709Z,9.57
2018-05-16T16:08:35.582Z,9.33
2018-05-16T16:11:03.424Z,10.43
2018-05-16T16:13:31.216Z,13.63
2018-05-16T16:15:59.000Z,10.13
2018-05-16T16:18:27.477Z,14.53
2018-05-16T16:20:56.010Z,12.33
2018-05-16T16:23:23.881Z,12.97
2018-05-16T16:25:51.726Z,12.10
2018-05-16T16:28:19.484Z,13.50
2018-05-16T16:30:47.297Z,11.43
2018-05-16T16:33:15.038Z,13.97
2018-05-16T16:35:42.765Z,11.63
2018-05-16T16:38:10.504Z,11.27
2018-05-16T16:40:38.292Z,10.20
2018-05-16T16:43:06.036Z,11.50
2018-05-16T16:45:34.597Z,13.43
2018-05-16T16:48:02.340Z,10.50
2018-05-16T16:50:31.124Z,11.47
2018-05-16T16:52:58.880Z,9.53
2018-05-16T16:55:26.897Z,12.53
2018-05-16T16:57:55.509Z,8.67
2018-05-16T17:00:23.273Z,8.67
2018-05-16T17:02:51.002Z,8.83
2018-05-16T17:05:18.774Z,8.03
2018-05-16T17:07:47.245Z,7.47
2018-05-16T17:10:15.477Z,7.10
2018-05-16T17:12:43.192Z,7.43
2018-05-16T17:15:10.979Z,8.77
2018-05-16T17:17:38.673Z,8.90
2018-05-16T17:20:06.652Z,10.40
2018-05-16T17:22:34.379Z,8.37
2018-05-16T17:25:02.083Z,11.53
2018-05-16T17:27:29.980Z,10.20
2018-05-16T17:29:57.715Z,10.37
2018-05-16T17:32:25.455Z,10.33
2018-05-16T17:34:53.188Z,10.03
2018-05-16T17:37:21.725Z,10.87
2018-05-16T17:39:49.693Z,10.47
2018-05-16T17:42:17.432Z,10.80
2018-05-16T17:44:45.172Z,11.17
2018-05-16T17:47:13.640Z,11.77
2018-05-16T17:49:42.165Z,14.37
2018-05-16T17:52:09.885Z,12.43
2018-05-16T17:54:38.461Z,12.47
2018-05-16T17:57:06.323Z,15.67
2018-05-16T17:59:34.393Z,17.80
2018-05-16T18:02:04.555Z,14.70
2018-05-16T18:04:33.289Z,15.10
2018-05-16T18:07:01.016Z,16.13
2018-05-16T18:09:28.755Z,16.70
2018-05-16T18:11:57.249Z,16.40
2018-05-16T18:14:36.873Z,15.53
2018-05-16T18:17:31.091Z,17.57
2018-05-16T18:19:58.843Z,13.27
2018-05-16T18:22:26.930Z,15.47
2018-05-16T18:24:54.638Z,13.17
2018-05-16T18:27:23.120Z,13.50
2018-05-16T18:29:51.295Z,13.77
2018-05-16T18:32:19.834Z,14.83
2018-05-16T18:34:47.553Z,14.20
2018-05-16T18:37:16.058Z,16.60
2018-05-16T18:39:43.921Z,18.77
2018-05-16T18:42:11.701Z,16.37
2018-05-16T18:44:39.681Z,17.60
2018-05-16T18:47:07.456Z,17.30
2018-05-16T18:49:35.367Z,16.77
2018-05-16T18:52:03.230Z,19.00
2018-05-16T18:54:31.012Z,20.30
2018-05-16T18:56:59.510Z,20.57
2018-05-16T18:59:27.265Z,20.23
2018-05-16T19:01:55.149Z,22.70
2018-05-16T19:04:22.910Z,21.87
2018-05-16T19:06:50.637Z,18.93
2018-05-16T19:09:19.156Z,21.67
2018-05-16T19:11:46.876Z,18.83
2018-05-16T19:14:15.360Z,25.63
2018-05-16T19:16:43.101Z,22.33
2018-05-16T19:19:10.830Z,20.93
2018-05-16T19:21:38.582Z,20.03
2018-05-16T19:24:06.433Z,22.43
2018-05-16T19:26:34.350Z,16.00
2018-05-16T19:29:02.133Z,26.17
2018-05-16T19:31:29.816Z,19.13
2018-05-16T19:33:57.940Z,18.77
2018-05-16T19:36:25.745Z,19.40
2018-05-16T19:38:53.481Z,17.93
2018-05-16T19:41:21.221Z,26.87
2018-05-16T19:43:48.915Z,18.70
2018-05-16T19:46:16.650Z,21.97
2018-05-16T19:48:44.433Z,19.27
2018-05-16T19:51:12.215Z,19.63
2018-05-16T19:53:39.949Z,22.60
2018-05-16T19:56:07.687Z,20.63
2018-05-16T19:58:35.452Z,19.70
2018-05-16T20:01:03.174Z,25.93
2018-05-16T20:03:30.873Z,23.13
2018-05-16T20:05:59.436Z,15.50
2018-05-16T20:08:27.120Z,21.63
2018-05-16T20:10:55.577Z,17.90
2018-05-16T20:13:23.260Z,19.63
2018-05-16T20:15:51.701Z,20.73
2018-05-16T20:18:19.383Z,22.13
2018-05-16T20:20:47.263Z,18.87
2018-05-16T20:23:15.709Z,25.00
2018-05-16T20:25:43.398Z,22.30
2018-05-16T20:28:11.090Z,24.90
2018-05-16T20:30:38.826Z,22.77
2018-05-16T20:33:06.511Z,18.50
2018-05-16T20:35:34.214Z,14.63
2018-05-16T20:38:02.157Z,23.10
2018-05-16T20:40:29.875Z,40.20
2018-05-16T20:42:57.584Z,19.50
2018-05-16T20:45:25.281Z,21.97
2018-05-16T20:47:52.985Z,27.23
2018-05-16T20:50:21.444Z,18.53
2018-05-16T20:52:49.128Z,20.07
2018-05-16T20:55:16.845Z,17.73
2018-05-16T20:57:44.537Z,19.40
2018-05-16T21:00:12.217Z,15.80
2018-05-16T21:02:40.678Z,19.97
2018-05-16T21:05:08.361Z,20.83
2018-05-16T21:07:36.826Z,18.37
2018-05-16T21:10:05.348Z,18.10
2018-05-16T21:12:33.041Z,19.23
2018-05-16T21:15:00.741Z,23.37
2018-05-16T21:17:29.193Z,21.50
2018-05-16T21:19:56.871Z,22.40
2018-05-16T21:22:24.552Z,19.40
2018-05-16T21:24:53.223Z,19.63
2018-05-16T21:27:20.912Z,22.87
2018-05-16T21:29:48.665Z,18.23
2018-05-16T21:32:17.108Z,20.23
2018-05-16T21:34:44.789Z,19.43
2018-05-16T21:37:12.474Z,19.40
2018-05-16T21:39:40.218Z,22.80
2018-05-16T21:42:08.331Z,16.27
2018-05-16T21:44:36.039Z,17.17
2018-05-16T21:47:03.732Z,21.80
2018-05-16T21:49:32.192Z,17.13
2018-05-16T21:51:59.877Z,16.10
2018-05-16T21:54:28.349Z,16.43
2018-05-16T21:56:56.832Z,20.50
2018-05-16T21:59:25.349Z,18.53
2018-05-16T22:01:53.033Z,19.07
2018-05-16T22:04:20.735Z,25.90
2018-05-16T22:06:49.193Z,24.27
2018-05-16T22:09:16.874Z,19.37
2018-05-16T22:11:44.557Z,22.47
2018-05-16T22:14:13.263Z,26.80
2018-05-16T22:16:40.960Z,21.47
2018-05-16T22:19:08.691Z,19.80
2018-05-16T22:21:37.440Z,26.90
2018-05-16T22:24:05.894Z,23.70
2018-05-16T22:26:33.572Z,23.10
2018-05-16T22:29:01.286Z,23.20
2018-05-16T22:31:34.675Z,19.17
2018-05-16T22:34:08.753Z,21.93
2018-05-16T22:36:42.125Z,21.97
2018-05-16T22:42:31.134Z,22.87
2018-05-16T22:45:14.913Z,20.33
2018-05-16T22:48:10.685Z,23.10
2018-05-16T22:50:38.368Z,23.37
2018-05-16T22:53:06.816Z,24.03
2018-05-16T22:55:34.496Z,18.53
2018-05-16T22:58:02.175Z,21.13
2018-05-16T23:00:31.771Z,22.30
2018-05-16T23:03:00.217Z,22.33
2018-05-16T23:05:27.913Z,24.40
2018-05-16T23:07:55.596Z,21.43
2018-05-16T23:10:23.337Z,22.10
2018-05-16T23:12:51.024Z,24.83
2018-05-16T23:15:19.069Z,26.03
2018-05-16T23:17:46.761Z,22.07
2018-05-16T23:20:14.496Z,26.13
2018-05-16T23:22:42.173Z,21.50
2018-05-16T23:25:10.619Z,25.57
2018-05-16T23:27:38.300Z,21.83
2018-05-16T23:30:05.982Z,17.07
2018-05-16T23:32:34.444Z,28.17
2018-05-16T23:35:02.124Z,22.97
2018-05-16T23:37:30.594Z,25.00
2018-05-16T23:39:59.069Z,24.07
2018-05-16T23:42:26.751Z,25.07
2018-05-16T23:44:55.216Z,22.17
2018-05-16T23:47:23.689Z,21.53
2018-05-16T23:49:51.372Z,21.93
2018-05-16T23:52:19.813Z,20.67
2018-05-16T23:54:47.493Z,30.53
2018-05-16T23:57:15.181Z,26.03
2018-05-16T23:59:43.621Z,22.50
